Buchanan, TN

11:53 PM CDT on April 21, 2015 (GMT -0500)
Highway 69 N | | Change Station
CLOSE
Current Station
Personal Weather Station
Location: Paris, TN
Elevation: 495 ft
Nearby Weather Stations

Elev 495 ft 36.31 °N, 88.34 °W | Updated 3 minutes ago

Overcast
Overcast
55.9 °F
Feels Like 55.9 °F
N
0.0
Wind Variable Wind from West
Gusts 1.0 mph

Today
High -- | Low -- °F
--% Chance of Precip.
Yesterday
High -- | Low -- °F
Precip. -- in
6:12 AM 7:32 PM
Waxing Crescent, 15% visible
Pressure 29.89 in
Visibility 3.0 miles
Clouds Few 1500 ft
Scattered Clouds 2900 ft
Mostly Cloudy 3800 ft
Dew Point 52 °F
Humidity 85%
Rainfall 0.00 in
Snow Depth Not available.
UV 0.0 out of 12
Pollen 10.00 out of 12
Air Quality Not available.
Flu Activity Sporadic
METAR KCEY 220415Z AUTO 20014G20KT 3SM FEW015 SCT029 BKN038 12/11 A2989 RMK AO1 P0005

More Conditions Fewer Conditions

Pressure 29.89 in
Visibility 3.0 miles
Clouds Few 1500 ft
Scattered Clouds 2900 ft
Mostly Cloudy 3800 ft
Dew Point 52 °F
Humidity 85%
Rainfall 0.00 in
Snow Depth Not available.
UV 0.0 out of 12
Pollen 10.00 out of 12
Air Quality Not available.
Flu Activity Sporadic
METAR KCEY 220415Z AUTO 20014G20KT 3SM FEW015 SCT029 BKN038 12/11 A2989 RMK AO1 P0005

More Conditions Fewer Conditions

10-Day Weather Forecast

Almanac

Astronomy

Apr. 21, 2015 Rise Set
Actual Time
Civil Twilight
Nautical Twilight
Astronomical Twilight
Moon
Length of Visible Light
Length of Day
Tomorrow will be .
, % of the Moon is Illuminated

Today's Extremes

State Highs State Lows

Community

WunderPhotos

Upload Photos

1,815,668 photos uploaded!

WunderBlogs® & News

Nearby

Air Quality

  Air Quality AQ Index Pollutant
Not available.

Snow Depth

Station Depth Elevation

Earthquake Activity

City Distance Mag. Time & Date
Minimum magnitude displayed is 2.5.

Coastal Water Temperatures

Place Temperature

Stations

Nearby Weather Stations

Station Location Temp. Windchill Dew Point Humidity Wind Precip. Elev Updated Type